createdAt,value
2017-07-11T00:00:25.769Z,0
2017-07-11T00:01:27.207Z,0
2017-07-11T00:02:28.630Z,0
2017-07-11T00:03:30.053Z,0
2017-07-11T00:04:31.479Z,0
2017-07-11T00:05:32.902Z,0
2017-07-11T00:06:34.323Z,0
2017-07-11T00:07:35.753Z,0
2017-07-11T00:08:37.171Z,0
2017-07-11T00:09:38.609Z,0
2017-07-11T00:10:40.027Z,0
2017-07-11T00:11:41.453Z,0
2017-07-11T00:12:42.875Z,0
2017-07-11T00:13:44.298Z,0
2017-07-11T00:14:45.718Z,0
2017-07-11T00:15:47.145Z,0
2017-07-11T00:16:48.634Z,0
2017-07-11T00:17:50.056Z,0
2017-07-11T00:18:51.487Z,0
2017-07-11T00:19:52.911Z,0
2017-07-11T00:20:54.333Z,0
2017-07-11T00:21:55.755Z,0
2017-07-11T00:22:57.187Z,0
2017-07-11T00:23:58.743Z,0
2017-07-11T00:25:00.166Z,0
2017-07-11T00:26:01.593Z,0
2017-07-11T00:27:03.051Z,0
2017-07-11T00:28:04.475Z,0
2017-07-11T00:29:05.899Z,0
2017-07-11T00:30:07.324Z,0
2017-07-11T00:31:08.845Z,0
2017-07-11T00:32:10.276Z,0
2017-07-11T00:33:11.695Z,0
2017-07-11T00:34:13.184Z,0
2017-07-11T00:35:14.603Z,0
2017-07-11T00:36:16.032Z,0
2017-07-11T00:37:17.493Z,0
2017-07-11T00:38:18.917Z,0
2017-07-11T00:39:20.346Z,0
2017-07-11T00:40:21.767Z,0
2017-07-11T00:41:23.192Z,0
2017-07-11T00:42:24.622Z,0
2017-07-11T00:43:26.044Z,0
2017-07-11T00:44:27.468Z,0
2017-07-11T00:45:28.894Z,0
2017-07-11T00:46:30.315Z,0
2017-07-11T00:47:31.748Z,0
2017-07-11T00:48:33.166Z,0
2017-07-11T00:49:34.603Z,0
2017-07-11T00:50:36.017Z,0
2017-07-11T00:51:37.439Z,0
2017-07-11T00:52:38.866Z,0
2017-07-11T00:53:40.284Z,0
2017-07-11T00:54:41.710Z,0
2017-07-11T00:55:43.135Z,0
2017-07-11T00:56:44.556Z,0
2017-07-11T00:57:45.979Z,0
2017-07-11T00:58:47.405Z,0
2017-07-11T00:59:48.828Z,0
2017-07-11T01:00:50.265Z,0
2017-07-11T01:01:51.686Z,0
2017-07-11T01:02:53.111Z,0
2017-07-11T01:03:54.534Z,0
2017-07-11T01:04:55.959Z,0
2017-07-11T01:05:57.376Z,0
2017-07-11T01:06:58.788Z,0
2017-07-11T01:08:00.213Z,0
2017-07-11T01:09:01.647Z,0
2017-07-11T01:10:03.071Z,0
2017-07-11T01:11:04.499Z,0
2017-07-11T01:12:05.923Z,0
2017-07-11T01:13:07.346Z,0
2017-07-11T01:14:08.762Z,0
2017-07-11T01:15:10.183Z,0
2017-07-11T01:16:11.600Z,0
2017-07-11T01:17:13.017Z,0
2017-07-11T01:18:14.441Z,0
2017-07-11T01:19:15.866Z,0
2017-07-11T01:20:17.287Z,0
2017-07-11T01:21:18.708Z,0
2017-07-11T01:22:20.136Z,0
2017-07-11T01:23:21.558Z,0
2017-07-11T01:24:22.994Z,0
2017-07-11T01:25:24.413Z,0
2017-07-11T01:26:25.849Z,0
2017-07-11T01:27:27.274Z,0
2017-07-11T01:28:28.711Z,0
2017-07-11T01:29:30.144Z,0
2017-07-11T01:30:31.573Z,0
2017-07-11T01:31:33.039Z,0
2017-07-11T01:32:34.425Z,0
2017-07-11T01:33:35.846Z,0
2017-07-11T01:34:37.277Z,0
2017-07-11T01:35:38.706Z,0
2017-07-11T01:36:40.137Z,0
2017-07-11T01:37:41.556Z,0
2017-07-11T01:38:42.988Z,0
2017-07-11T01:39:44.408Z,0
2017-07-11T01:40:45.828Z,0
2017-07-11T01:41:47.253Z,0
2017-07-11T01:42:48.709Z,0
2017-07-11T01:43:50.133Z,0
2017-07-11T01:44:51.561Z,0
2017-07-11T01:45:52.990Z,0
2017-07-11T01:46:54.412Z,0
2017-07-11T01:47:55.847Z,0
2017-07-11T01:48:57.270Z,0
2017-07-11T01:49:58.688Z,0
2017-07-11T01:51:00.115Z,0
2017-07-11T01:52:01.553Z,0
2017-07-11T01:53:02.975Z,0
2017-07-11T01:54:04.398Z,0
2017-07-11T01:55:05.828Z,0
2017-07-11T01:56:07.245Z,0
2017-07-11T01:57:08.667Z,0
2017-07-11T01:58:10.976Z,0
2017-07-11T01:59:12.402Z,0
2017-07-11T02:00:13.831Z,0
2017-07-11T02:01:15.255Z,0
2017-07-11T02:02:16.678Z,0
2017-07-11T02:03:18.111Z,0
2017-07-11T02:04:19.537Z,0
2017-07-11T02:05:20.956Z,0
2017-07-11T02:06:22.378Z,0
2017-07-11T02:07:23.808Z,0
2017-07-11T02:08:25.229Z,0
2017-07-11T02:09:26.651Z,0
2017-07-11T02:10:28.075Z,0
2017-07-11T02:11:29.502Z,0
2017-07-11T02:12:30.929Z,0
2017-07-11T02:13:32.349Z,0
2017-07-11T02:14:33.777Z,0
2017-07-11T02:15:35.194Z,0
2017-07-11T02:16:36.614Z,0
2017-07-11T02:17:38.036Z,0
2017-07-11T02:18:39.461Z,0
2017-07-11T02:19:40.975Z,0
2017-07-11T02:20:42.405Z,0
2017-07-11T02:21:43.824Z,0
2017-07-11T02:22:45.248Z,0
2017-07-11T02:23:46.667Z,0
2017-07-11T02:24:48.090Z,0
2017-07-11T02:25:49.522Z,0
2017-07-11T02:26:51.007Z,0
2017-07-11T02:27:52.428Z,0
2017-07-11T02:28:53.847Z,0
2017-07-11T02:29:55.281Z,0
2017-07-11T02:30:56.703Z,0
2017-07-11T02:31:58.137Z,0
2017-07-11T02:32:59.565Z,0
2017-07-11T02:34:00.992Z,0
2017-07-11T02:35:02.421Z,0
2017-07-11T02:36:03.844Z,0
2017-07-11T02:37:05.264Z,0
2017-07-11T02:38:06.685Z,0
2017-07-11T02:39:08.109Z,0
2017-07-11T02:40:09.528Z,0
2017-07-11T02:41:10.963Z,0
2017-07-11T02:42:12.385Z,0
2017-07-11T02:43:13.805Z,0
2017-07-11T02:44:15.226Z,0
2017-07-11T02:45:16.643Z,0
2017-07-11T02:46:18.066Z,0
2017-07-11T02:47:19.490Z,0
2017-07-11T02:48:20.915Z,0
2017-07-11T02:49:22.337Z,0
2017-07-11T02:50:23.769Z,0
2017-07-11T02:51:25.195Z,0
2017-07-11T02:52:26.617Z,0
2017-07-11T02:53:28.911Z,0
2017-07-11T02:54:30.333Z,0
2017-07-11T02:55:31.757Z,0
2017-07-11T02:56:33.182Z,0
2017-07-11T02:57:34.610Z,0
2017-07-11T02:58:36.033Z,0
2017-07-11T02:59:37.456Z,4
2017-07-11T03:00:38.883Z,0
2017-07-11T03:01:40.307Z,0
2017-07-11T03:02:41.727Z,4
2017-07-11T03:03:43.153Z,4
2017-07-11T03:04:45.503Z,4
2017-07-11T03:05:46.927Z,4
2017-07-11T03:06:48.345Z,4
2017-07-11T03:07:49.771Z,4
2017-07-11T03:08:51.199Z,8
2017-07-11T03:09:52.650Z,8
2017-07-11T03:10:54.071Z,8
2017-07-11T03:11:55.493Z,8
2017-07-11T03:12:56.921Z,12
2017-07-11T03:13:58.350Z,8
2017-07-11T03:14:59.777Z,12
2017-07-11T03:16:01.209Z,12
2017-07-11T03:17:02.634Z,16
2017-07-11T03:18:04.060Z,16
2017-07-11T03:19:05.481Z,16
2017-07-11T03:20:06.905Z,20
2017-07-11T03:21:08.331Z,20
2017-07-11T03:22:09.770Z,24
2017-07-11T03:23:11.181Z,24
2017-07-11T03:24:12.611Z,28
2017-07-11T03:25:14.036Z,28
2017-07-11T03:26:15.463Z,28
2017-07-11T03:27:16.884Z,36
2017-07-11T03:28:18.311Z,36
2017-07-11T03:29:19.730Z,36
2017-07-11T03:30:21.149Z,40
2017-07-11T03:31:22.571Z,40
2017-07-11T03:32:24.007Z,44
2017-07-11T03:33:25.429Z,48
2017-07-11T03:34:26.862Z,48
2017-07-11T03:35:28.284Z,52
2017-07-11T03:36:29.704Z,60
2017-07-11T03:37:31.127Z,60
2017-07-11T03:38:32.555Z,68
2017-07-11T03:39:33.979Z,68
2017-07-11T03:40:35.404Z,76
2017-07-11T03:41:36.827Z,80
2017-07-11T03:42:38.260Z,80
2017-07-11T03:43:39.688Z,84
2017-07-11T03:44:41.115Z,92
2017-07-11T03:45:42.552Z,96
2017-07-11T03:46:43.978Z,100
2017-07-11T03:47:45.416Z,104
2017-07-11T03:48:46.840Z,112
2017-07-11T03:49:48.259Z,112
2017-07-11T03:50:49.697Z,124
2017-07-11T03:51:51.127Z,124
2017-07-11T03:52:52.552Z,132
2017-07-11T03:53:53.974Z,136
2017-07-11T03:54:55.397Z,144
2017-07-11T03:55:56.821Z,144
2017-07-11T03:56:58.251Z,152
2017-07-11T03:57:59.678Z,160
2017-07-11T03:59:01.112Z,168
2017-07-11T04:00:02.533Z,172
2017-07-11T04:01:03.964Z,180
2017-07-11T04:02:05.397Z,188
2017-07-11T04:03:06.825Z,200
2017-07-11T04:04:08.254Z,208
2017-07-11T04:05:09.686Z,212
2017-07-11T04:06:11.141Z,220
2017-07-11T04:07:12.571Z,228
2017-07-11T04:08:13.993Z,232
2017-07-11T04:09:15.419Z,240
2017-07-11T04:10:16.855Z,248
2017-07-11T04:11:18.279Z,248
2017-07-11T04:12:19.708Z,256
2017-07-11T04:13:21.141Z,260
2017-07-11T04:14:22.581Z,272
2017-07-11T04:15:24.011Z,272
2017-07-11T04:16:25.428Z,280
2017-07-11T04:17:26.852Z,284
2017-07-11T04:18:28.343Z,292
2017-07-11T04:19:29.717Z,296
2017-07-11T04:20:31.154Z,300
2017-07-11T04:21:32.584Z,304
2017-07-11T04:22:34.011Z,308
2017-07-11T04:23:35.445Z,316
2017-07-11T04:24:36.879Z,324
2017-07-11T04:25:38.308Z,328
2017-07-11T04:26:39.734Z,336
2017-07-11T04:27:41.163Z,340
2017-07-11T04:28:42.595Z,344
2017-07-11T04:29:44.027Z,348
2017-07-11T04:30:45.451Z,352
2017-07-11T04:31:46.886Z,360
2017-07-11T04:32:48.311Z,364
2017-07-11T04:33:49.731Z,364
2017-07-11T04:34:51.161Z,368
2017-07-11T04:35:52.583Z,372
2017-07-11T04:36:54.009Z,376
2017-07-11T04:37:55.430Z,376
2017-07-11T04:38:56.860Z,380
2017-07-11T04:39:58.278Z,384
2017-07-11T04:40:59.711Z,388
2017-07-11T04:42:01.143Z,396
2017-07-11T04:43:02.571Z,396
2017-07-11T04:44:04.013Z,400
2017-07-11T04:45:05.432Z,408
2017-07-11T04:46:06.863Z,412
2017-07-11T04:47:08.286Z,420
2017-07-11T04:48:09.707Z,420
2017-07-11T04:49:11.135Z,428
2017-07-11T04:50:12.559Z,432
2017-07-11T04:51:13.997Z,436
2017-07-11T04:52:15.431Z,436
2017-07-11T04:53:16.856Z,448
2017-07-11T04:54:18.279Z,452
2017-07-11T04:55:19.700Z,464
2017-07-11T04:56:21.133Z,472
2017-07-11T04:57:22.557Z,472
2017-07-11T04:58:23.983Z,480
2017-07-11T04:59:25.413Z,480
2017-07-11T05:00:26.845Z,488
2017-07-11T05:01:28.276Z,496
2017-07-11T05:02:29.686Z,512
2017-07-11T05:03:31.112Z,520
2017-07-11T05:04:32.541Z,516
2017-07-11T05:05:33.983Z,544
2017-07-11T05:06:35.420Z,560
2017-07-11T05:07:36.840Z,572
2017-07-11T05:08:38.268Z,576
2017-07-11T05:09:39.692Z,584
2017-07-11T05:10:41.155Z,548
2017-07-11T05:11:43.158Z,576
2017-07-11T05:12:44.587Z,664
2017-07-11T05:13:46.022Z,652
2017-07-11T05:14:47.457Z,616
2017-07-11T05:15:48.880Z,668
2017-07-11T05:16:50.308Z,696
2017-07-11T05:17:51.731Z,692
2017-07-11T05:18:53.161Z,676
2017-07-11T05:19:54.595Z,704
2017-07-11T05:20:56.019Z,816
2017-07-11T05:21:57.446Z,720
2017-07-11T05:22:58.887Z,820
2017-07-11T05:24:00.317Z,824
2017-07-11T05:25:01.745Z,824
2017-07-11T05:26:03.169Z,884
2017-07-11T05:27:04.633Z,820
2017-07-11T05:28:06.058Z,884
2017-07-11T05:29:07.483Z,916
2017-07-11T05:30:08.910Z,956
2017-07-11T05:31:10.336Z,1004
2017-07-11T05:32:11.769Z,1108
2017-07-11T05:33:13.977Z,1096
2017-07-11T05:34:15.420Z,1200
2017-07-11T05:35:16.844Z,1208
2017-07-11T05:36:18.274Z,1284
2017-07-11T05:37:19.702Z,1336
2017-07-11T05:38:21.130Z,1244
2017-07-11T05:39:22.549Z,1252
2017-07-11T05:40:23.986Z,1236
2017-07-11T05:41:25.424Z,1176
2017-07-11T05:42:26.866Z,1276
2017-07-11T05:43:28.294Z,1160
2017-07-11T05:44:29.718Z,1248
2017-07-11T05:45:31.146Z,1132
2017-07-11T05:46:32.671Z,1092
2017-07-11T05:47:34.099Z,976
2017-07-11T05:48:35.524Z,896
2017-07-11T05:49:36.956Z,920
2017-07-11T05:50:38.386Z,1032
2017-07-11T05:51:39.821Z,964
2017-07-11T05:52:41.250Z,860
2017-07-11T05:53:42.675Z,792
2017-07-11T05:54:44.104Z,784
2017-07-11T05:55:45.543Z,728
2017-07-11T05:56:46.973Z,704
2017-07-11T05:57:48.412Z,844
2017-07-11T05:58:49.838Z,724
2017-07-11T05:59:51.270Z,764
2017-07-11T06:00:52.707Z,800
2017-07-11T06:01:54.134Z,736
2017-07-11T06:02:55.564Z,728
2017-07-11T06:03:56.994Z,688
2017-07-11T06:04:58.424Z,644
2017-07-11T06:05:59.850Z,652
2017-07-11T06:07:01.276Z,628
2017-07-11T06:08:02.705Z,708
2017-07-11T06:09:04.141Z,764
2017-07-11T06:10:05.570Z,848
2017-07-11T06:11:07.001Z,940
2017-07-11T06:12:08.437Z,964
2017-07-11T06:13:09.865Z,924
2017-07-11T06:14:11.295Z,948
2017-07-11T06:15:12.725Z,1128
2017-07-11T06:16:14.148Z,1248
2017-07-11T06:17:15.573Z,1316
2017-07-11T06:18:17.003Z,1188
2017-07-11T06:19:18.429Z,1244
2017-07-11T06:20:19.853Z,1228
2017-07-11T06:21:21.286Z,1132
2017-07-11T06:22:22.716Z,1092
2017-07-11T06:23:24.144Z,1124
2017-07-11T06:24:25.574Z,1088
2017-07-11T06:25:27.001Z,1080
2017-07-11T06:26:28.430Z,596
2017-07-11T06:27:29.873Z,908
2017-07-11T06:28:31.303Z,940
2017-07-11T06:29:32.723Z,1104
2017-07-11T06:30:34.149Z,1040
2017-07-11T06:31:35.585Z,1076
2017-07-11T06:32:37.011Z,952
2017-07-11T06:33:38.433Z,1028
2017-07-11T06:34:39.864Z,1104
2017-07-11T06:35:41.291Z,1000
2017-07-11T06:36:42.717Z,996
2017-07-11T06:37:44.147Z,968
2017-07-11T06:38:45.586Z,1080
2017-07-11T06:39:47.004Z,1016
2017-07-11T06:40:48.430Z,968
2017-07-11T06:41:49.866Z,936
2017-07-11T06:42:51.293Z,876
2017-07-11T06:43:52.724Z,844
2017-07-11T06:44:54.156Z,800
2017-07-11T06:45:55.582Z,664
2017-07-11T06:46:57.012Z,688
2017-07-11T06:47:58.447Z,712
2017-07-11T06:48:59.875Z,680
2017-07-11T06:50:01.877Z,764
2017-07-11T06:51:03.300Z,816
2017-07-11T06:52:04.742Z,1004
2017-07-11T06:53:06.162Z,1064
2017-07-11T06:54:07.596Z,1092
2017-07-11T06:55:09.027Z,1136
2017-07-11T06:56:10.453Z,1192
2017-07-11T06:57:11.888Z,1252
2017-07-11T06:58:13.316Z,1352
2017-07-11T06:59:14.737Z,1352
2017-07-11T07:00:16.164Z,1404
2017-07-11T07:01:17.599Z,1396
2017-07-11T07:02:19.031Z,1220
2017-07-11T07:03:20.450Z,1036
2017-07-11T07:04:21.884Z,1124
2017-07-11T07:05:24.221Z,1180
2017-07-11T07:06:25.642Z,1044
2017-07-11T07:07:27.072Z,944
2017-07-11T07:08:28.490Z,980
2017-07-11T07:09:29.924Z,804
2017-07-11T07:10:31.351Z,760
2017-07-11T07:11:32.787Z,756
2017-07-11T07:12:34.209Z,668
2017-07-11T07:13:35.644Z,724
2017-07-11T07:14:37.069Z,900
2017-07-11T07:15:38.498Z,992
2017-07-11T07:16:39.929Z,884
2017-07-11T07:17:41.367Z,708
2017-07-11T07:18:42.789Z,676
2017-07-11T07:19:44.224Z,816
2017-07-11T07:20:45.652Z,1012
2017-07-11T07:21:47.095Z,1008
2017-07-11T07:22:48.519Z,1012
2017-07-11T07:23:49.950Z,1084
2017-07-11T07:24:51.387Z,868
2017-07-11T07:25:52.811Z,700
2017-07-11T07:26:54.239Z,644
2017-07-11T07:27:55.669Z,604
2017-07-11T07:28:57.095Z,580
2017-07-11T07:29:58.524Z,516
2017-07-11T07:30:59.958Z,448
2017-07-11T07:32:01.391Z,552
2017-07-11T07:33:02.828Z,628
2017-07-11T07:34:04.274Z,680
2017-07-11T07:35:05.701Z,884
2017-07-11T07:36:07.125Z,1008
2017-07-11T07:37:08.550Z,916
2017-07-11T07:38:09.973Z,728
2017-07-11T07:39:11.403Z,756
2017-07-11T07:40:12.844Z,872
2017-07-11T07:41:14.273Z,1068
2017-07-11T07:42:15.699Z,1060
2017-07-11T07:43:17.136Z,1088
2017-07-11T07:44:18.563Z,1040
2017-07-11T07:45:19.992Z,868
2017-07-11T07:46:21.411Z,852
2017-07-11T07:47:22.836Z,1056
2017-07-11T07:48:24.265Z,1172
2017-07-11T07:49:25.685Z,1160
2017-07-11T07:50:27.114Z,1316
2017-07-11T07:51:28.545Z,1396
2017-07-11T07:52:29.975Z,1400
2017-07-11T07:53:31.405Z,1572
2017-07-11T07:54:32.841Z,1588
2017-07-11T07:55:34.268Z,1644
2017-07-11T07:56:35.704Z,1848
2017-07-11T07:57:37.132Z,1664
2017-07-11T07:58:38.581Z,1596
2017-07-11T07:59:40.015Z,1608
2017-07-11T08:00:42.247Z,1572
2017-07-11T08:01:43.673Z,1564
2017-07-11T08:02:45.108Z,1564
2017-07-11T08:03:46.543Z,1932
2017-07-11T08:04:48.678Z,2056
2017-07-11T08:05:50.101Z,1868
2017-07-11T08:06:51.523Z,1640
2017-07-11T08:07:56.563Z,1748
2017-07-11T08:08:58.018Z,1324
2017-07-11T08:09:59.455Z,1408
2017-07-11T08:11:00.895Z,1528
2017-07-11T08:12:02.333Z,1784
2017-07-11T08:13:03.761Z,1452
2017-07-11T08:14:05.189Z,1344
2017-07-11T08:15:06.622Z,1368
2017-07-11T08:16:08.057Z,1524
2017-07-11T08:17:09.482Z,1292
2017-07-11T08:18:10.915Z,1288
2017-07-11T08:19:12.355Z,1352
2017-07-11T08:20:13.785Z,1244
2017-07-11T08:21:15.213Z,1460
2017-07-11T08:22:16.644Z,1680
2017-07-11T08:23:18.076Z,1796
2017-07-11T08:24:19.508Z,1888
2017-07-11T08:25:20.945Z,1640
2017-07-11T08:26:22.383Z,2264
2017-07-11T08:27:23.806Z,2560
2017-07-11T08:28:25.241Z,2240
2017-07-11T08:29:26.678Z,2340
2017-07-11T08:30:28.102Z,2232
2017-07-11T08:31:29.540Z,2220
2017-07-11T08:32:30.987Z,2312
2017-07-11T08:33:32.399Z,2240
2017-07-11T08:34:33.836Z,2132
2017-07-11T08:35:35.288Z,1848
2017-07-11T08:36:36.714Z,1936
2017-07-11T08:37:38.152Z,2288
2017-07-11T08:38:39.589Z,2488
2017-07-11T08:39:41.028Z,2500
2017-07-11T08:40:42.466Z,2924
2017-07-11T08:41:43.898Z,2444
2017-07-11T08:42:45.328Z,1952
2017-07-11T08:43:46.757Z,1804
2017-07-11T08:44:48.194Z,1832
2017-07-11T08:45:49.626Z,1928
2017-07-11T08:46:51.048Z,1992
2017-07-11T08:47:52.484Z,1996
2017-07-11T08:48:53.922Z,2320
2017-07-11T08:49:55.350Z,2140
2017-07-11T08:50:56.787Z,1972
2017-07-11T08:51:58.221Z,1536
2017-07-11T08:52:59.651Z,1628
2017-07-11T08:54:01.111Z,1468
2017-07-11T08:55:02.537Z,1580
2017-07-11T08:56:03.971Z,1888
2017-07-11T08:57:05.401Z,1732
2017-07-11T08:58:06.833Z,2244
2017-07-11T08:59:08.265Z,2428
2017-07-11T09:00:09.687Z,2772
2017-07-11T09:01:11.115Z,2688
2017-07-11T09:02:12.542Z,2812
2017-07-11T09:03:13.976Z,2572
2017-07-11T09:04:15.415Z,2588
2017-07-11T09:05:16.858Z,2592
2017-07-11T09:06:18.297Z,2208
2017-07-11T09:07:19.727Z,2336
2017-07-11T09:08:21.162Z,2232
2017-07-11T09:09:22.597Z,2592
2017-07-11T09:10:24.022Z,2268
2017-07-11T09:11:25.463Z,2428
2017-07-11T09:12:26.899Z,2504
2017-07-11T09:13:28.327Z,2476
2017-07-11T09:14:29.758Z,2468
2017-07-11T09:15:31.197Z,2696
2017-07-11T09:16:32.623Z,2548
2017-07-11T09:17:34.052Z,2660
2017-07-11T09:18:35.478Z,2460
2017-07-11T09:19:36.905Z,2484
2017-07-11T09:20:38.336Z,2528
2017-07-11T09:21:39.771Z,2240
2017-07-11T09:22:41.202Z,2216
2017-07-11T09:23:42.633Z,2280
2017-07-11T09:24:44.069Z,2024
2017-07-11T09:25:45.505Z,2104
2017-07-11T09:26:47.053Z,2148
2017-07-11T09:27:48.486Z,2524
2017-07-11T09:28:49.914Z,2888
2017-07-11T09:29:51.404Z,2692
2017-07-11T09:30:52.869Z,2448
2017-07-11T09:31:54.311Z,2340
2017-07-11T09:32:55.744Z,2352
2017-07-11T09:33:57.177Z,2440
2017-07-11T09:34:58.610Z,2840
2017-07-11T09:36:00.032Z,2620
2017-07-11T09:37:02.019Z,3196
2017-07-11T09:38:03.457Z,3084
2017-07-11T09:39:04.879Z,2524
2017-07-11T09:40:06.305Z,2456
2017-07-11T09:41:07.737Z,3000
2017-07-11T09:42:09.177Z,2644
2017-07-11T09:43:10.601Z,2648
2017-07-11T09:44:12.034Z,2536
2017-07-11T09:45:13.462Z,2736
2017-07-11T09:46:14.890Z,2380
2017-07-11T09:47:16.336Z,2756
2017-07-11T09:48:17.771Z,2348
2017-07-11T09:49:19.205Z,2484
2017-07-11T09:50:20.635Z,2956
2017-07-11T09:51:22.075Z,3244
2017-07-11T09:52:23.508Z,3280
2017-07-11T09:53:24.936Z,2676
2017-07-11T09:54:26.373Z,2560
2017-07-11T09:55:27.806Z,2568
2017-07-11T09:56:29.237Z,2196
2017-07-11T09:57:30.670Z,2544
2017-07-11T09:58:32.636Z,3004
2017-07-11T09:59:34.077Z,2956
2017-07-11T10:00:35.515Z,2684
2017-07-11T10:01:36.943Z,2624
2017-07-11T10:02:38.372Z,3432
2017-07-11T10:03:39.801Z,3336
2017-07-11T10:04:41.235Z,2676
2017-07-11T10:05:42.674Z,2388
2017-07-11T10:06:44.104Z,2476
2017-07-11T10:07:45.533Z,2392
2017-07-11T10:08:46.961Z,2592
2017-07-11T10:09:48.395Z,2484
2017-07-11T10:10:49.824Z,2588
2017-07-11T10:11:51.268Z,2848
2017-07-11T10:12:52.695Z,2272
2017-07-11T10:13:54.131Z,2260
2017-07-11T10:14:55.563Z,2028
2017-07-11T10:15:56.992Z,1768
2017-07-11T10:16:58.424Z,2752
2017-07-11T10:17:59.856Z,2812
2017-07-11T10:19:01.282Z,2652
2017-07-11T10:20:03.673Z,2524
2017-07-11T10:21:05.104Z,2624
2017-07-11T10:22:06.539Z,2424
2017-07-11T10:23:07.977Z,3364
2017-07-11T10:24:09.409Z,3016
2017-07-11T10:25:10.844Z,2960
2017-07-11T10:26:12.280Z,3328
2017-07-11T10:27:13.719Z,3004
2017-07-11T10:28:15.153Z,2080
2017-07-11T10:29:16.587Z,2312
2017-07-11T10:30:18.021Z,2840
2017-07-11T10:31:19.459Z,3204
2017-07-11T10:32:20.891Z,3856
2017-07-11T10:33:22.324Z,2580
2017-07-11T10:34:23.755Z,2776
2017-07-11T10:35:25.196Z,2228
2017-07-11T10:36:26.626Z,2720
2017-07-11T10:37:28.058Z,2356
2017-07-11T10:38:29.487Z,1980
2017-07-11T10:39:30.924Z,2248
2017-07-11T10:40:32.354Z,3320
2017-07-11T10:41:33.786Z,4208
2017-07-11T10:42:35.228Z,4032
2017-07-11T10:43:36.661Z,3332
2017-07-11T10:44:38.105Z,2432
2017-07-11T10:45:39.534Z,3536
2017-07-11T10:46:40.963Z,3668
2017-07-11T10:47:42.392Z,3712
2017-07-11T10:48:43.824Z,3760
2017-07-11T10:49:45.259Z,3792
2017-07-11T10:50:46.695Z,3452
2017-07-11T10:51:48.133Z,3192
2017-07-11T10:52:49.570Z,2976
2017-07-11T10:53:51.004Z,3144
2017-07-11T10:54:52.435Z,3448
2017-07-11T10:55:53.871Z,3348
2017-07-11T10:56:55.305Z,3120
2017-07-11T10:57:56.748Z,3000
2017-07-11T10:58:58.186Z,3492
2017-07-11T10:59:59.630Z,3480
2017-07-11T11:01:01.065Z,3568
2017-07-11T11:02:02.497Z,3404
2017-07-11T11:03:03.931Z,3652
2017-07-11T11:04:05.362Z,3832
2017-07-11T11:05:06.808Z,2964
2017-07-11T11:06:08.247Z,3164
2017-07-11T11:07:09.676Z,4312
2017-07-11T11:08:11.120Z,4028
2017-07-11T11:09:12.555Z,4332
2017-07-11T11:10:13.996Z,3904
2017-07-11T11:11:15.437Z,3596
2017-07-11T11:12:16.872Z,3800
2017-07-11T11:13:18.300Z,3452
2017-07-11T11:14:19.736Z,3300
2017-07-11T11:15:21.175Z,3616
2017-07-11T11:16:22.614Z,3304
2017-07-11T11:17:24.045Z,2992
2017-07-11T11:18:25.484Z,2176
2017-07-11T11:19:26.913Z,1836
2017-07-11T11:20:28.344Z,1872
2017-07-11T11:21:29.785Z,3452
2017-07-11T11:22:31.219Z,3400
2017-07-11T11:23:32.654Z,3004
2017-07-11T11:24:34.093Z,3936
2017-07-11T11:25:35.536Z,4436
2017-07-11T11:26:36.976Z,4900
2017-07-11T11:27:38.406Z,5268
2017-07-11T11:28:39.849Z,5128
2017-07-11T11:29:41.284Z,4752
2017-07-11T11:30:42.725Z,4488
2017-07-11T11:31:44.175Z,3960
2017-07-11T11:32:45.610Z,3704
2017-07-11T11:33:47.047Z,2384
2017-07-11T11:34:48.487Z,4136
2017-07-11T11:35:49.962Z,3992
2017-07-11T11:36:51.402Z,5192
2017-07-11T11:37:52.842Z,4720
2017-07-11T11:38:54.277Z,3872
2017-07-11T11:39:55.744Z,3524
2017-07-11T11:40:57.191Z,3412
2017-07-11T11:41:58.630Z,3324
2017-07-11T11:43:00.062Z,3424
2017-07-11T11:44:01.494Z,2488
2017-07-11T11:45:02.932Z,2812
2017-07-11T11:46:04.350Z,2852
2017-07-11T11:47:05.802Z,3788
2017-07-11T11:48:07.241Z,4084
2017-07-11T11:49:08.674Z,4328
2017-07-11T11:50:10.103Z,4272
2017-07-11T11:51:11.549Z,4140
2017-07-11T11:52:12.989Z,4464
2017-07-11T11:53:14.467Z,3704
2017-07-11T11:54:15.901Z,4248
2017-07-11T11:55:17.334Z,4184
2017-07-11T11:56:18.777Z,4556
2017-07-11T11:57:20.211Z,4140
2017-07-11T11:58:21.647Z,3512
2017-07-11T11:59:23.078Z,4612
2017-07-11T12:00:24.517Z,5052
2017-07-11T12:01:25.950Z,5020
2017-07-11T12:02:27.385Z,3844
2017-07-11T12:03:28.814Z,3788
2017-07-11T12:04:30.331Z,5196
2017-07-11T12:05:31.710Z,5124
2017-07-11T12:06:33.142Z,5216
2017-07-11T12:07:34.592Z,4064
2017-07-11T12:08:36.028Z,4412
2017-07-11T12:09:37.462Z,5216
2017-07-11T12:10:38.897Z,5632
2017-07-11T12:11:40.336Z,4884
2017-07-11T12:12:41.780Z,5060
2017-07-11T12:13:43.228Z,4408
2017-07-11T12:14:44.664Z,4076
2017-07-11T12:15:46.105Z,4732
2017-07-11T12:16:47.548Z,5788
2017-07-11T12:17:48.980Z,4732
2017-07-11T12:18:50.418Z,5164
2017-07-11T12:19:51.842Z,6240
2017-07-11T12:20:53.276Z,6056
2017-07-11T12:21:54.717Z,5644
2017-07-11T12:22:56.175Z,5700
2017-07-11T12:23:58.331Z,5748
2017-07-11T12:24:59.775Z,5336
2017-07-11T12:26:01.207Z,4812
2017-07-11T12:27:02.663Z,5136
2017-07-11T12:28:04.096Z,5764
2017-07-11T12:29:05.529Z,5108
2017-07-11T12:30:06.976Z,4304
2017-07-11T12:31:08.410Z,5468
2017-07-11T12:32:09.844Z,5904
2017-07-11T12:33:11.281Z,5708
2017-07-11T12:34:12.720Z,5452
2017-07-11T12:35:14.183Z,5448
2017-07-11T12:36:15.605Z,5064
2017-07-11T12:37:17.043Z,4968
2017-07-11T12:38:18.478Z,4996
2017-07-11T12:39:19.909Z,5292
2017-07-11T12:40:22.139Z,5172
2017-07-11T12:41:23.574Z,5384
2017-07-11T12:42:25.015Z,5224
2017-07-11T12:43:26.471Z,5396
2017-07-11T12:44:27.903Z,4840
2017-07-11T12:45:29.333Z,4724
2017-07-11T12:46:30.770Z,3928
2017-07-11T12:47:32.213Z,3848
2017-07-11T12:48:33.645Z,4148
2017-07-11T12:49:35.091Z,4216
2017-07-11T12:50:37.311Z,3976
2017-07-11T12:51:38.817Z,3708
2017-07-11T12:52:40.258Z,3332
2017-07-11T12:53:41.702Z,3172
2017-07-11T12:54:43.142Z,3356
2017-07-11T12:55:44.570Z,3280
2017-07-11T12:56:46.004Z,3092
2017-07-11T12:57:47.485Z,3068
2017-07-11T12:58:48.929Z,3032
2017-07-11T12:59:50.370Z,3064
2017-07-11T13:00:51.845Z,3332
2017-07-11T13:01:53.301Z,3568
2017-07-11T13:02:54.741Z,3944
2017-07-11T13:03:56.175Z,4256
2017-07-11T13:04:57.615Z,4308
2017-07-11T13:05:59.099Z,4284
2017-07-11T13:07:00.879Z,4428
2017-07-11T13:08:02.369Z,4424
2017-07-11T13:09:03.816Z,4320
2017-07-11T13:10:05.332Z,4280
2017-07-11T13:11:06.779Z,4256
2017-07-11T13:12:08.217Z,4176
2017-07-11T13:13:09.650Z,3872
2017-07-11T13:14:11.082Z,3420
2017-07-11T13:15:12.523Z,2984
2017-07-11T13:16:13.960Z,3036
2017-07-11T13:17:15.387Z,3176
2017-07-11T13:18:16.824Z,3224
2017-07-11T13:19:18.255Z,3156
2017-07-11T13:20:19.698Z,3256
2017-07-11T13:21:21.142Z,3412
2017-07-11T13:22:22.574Z,3164
2017-07-11T13:23:24.008Z,3216
2017-07-11T13:24:25.444Z,3064
2017-07-11T13:25:26.880Z,2860
2017-07-11T13:26:28.326Z,2384
2017-07-11T13:27:29.762Z,2492
2017-07-11T13:28:31.181Z,2144
2017-07-11T13:29:32.615Z,2436
2017-07-11T13:30:34.045Z,2768
2017-07-11T13:31:35.483Z,2980
2017-07-11T13:32:36.922Z,3128
2017-07-11T13:33:38.353Z,3252
2017-07-11T13:34:39.791Z,3452
2017-07-11T13:35:41.221Z,3656
2017-07-11T13:36:42.653Z,3748
2017-07-11T13:37:44.093Z,3760
2017-07-11T13:38:45.535Z,3812
2017-07-11T13:39:47.011Z,3920
2017-07-11T13:40:48.442Z,3972
2017-07-11T13:41:49.878Z,4044
2017-07-11T13:42:51.323Z,3932
2017-07-11T13:43:52.762Z,4072
2017-07-11T13:44:54.191Z,4120
2017-07-11T13:45:55.623Z,3948
2017-07-11T13:46:57.049Z,3856
2017-07-11T13:47:58.485Z,3676
2017-07-11T13:48:59.917Z,3384
2017-07-11T13:50:01.351Z,2900
2017-07-11T13:51:02.781Z,3460
2017-07-11T13:52:04.213Z,3696
2017-07-11T13:53:05.648Z,3680
2017-07-11T13:54:07.108Z,3964
2017-07-11T13:55:08.542Z,3636
2017-07-11T13:56:10.163Z,3116
2017-07-11T13:57:11.601Z,3472
2017-07-11T13:58:13.035Z,3828
2017-07-11T13:59:14.478Z,3844
2017-07-11T14:00:15.923Z,3696
2017-07-11T14:01:17.359Z,3596
2017-07-11T14:02:18.791Z,3384
2017-07-11T14:03:20.216Z,3436
2017-07-11T14:04:21.681Z,3440
2017-07-11T14:05:23.125Z,4760